sensor_id;sensor_type;location;lat;lon;timestamp;P1;durP1;ratioP1;P2;durP2;ratioP2
23730;SDS011;12046;44.702;10.622;2023-02-02T00:00:52;21.83;;;13.60;;
23730;SDS011;12046;44.702;10.622;2023-02-02T00:03:20;16.60;;;11.35;;
23730;SDS011;12046;44.702;10.622;2023-02-02T00:05:47;18.23;;;11.18;;
23730;SDS011;12046;44.702;10.622;2023-02-02T00:08:16;18.90;;;11.02;;
23730;SDS011;12046;44.702;10.622;2023-02-02T00:10:42;15.25;;;9.15;;
23730;SDS011;12046;44.702;10.622;2023-02-02T00:13:09;13.25;;;8.63;;
23730;SDS011;12046;44.702;10.622;2023-02-02T00:15:37;13.73;;;8.45;;
23730;SDS011;12046;44.702;10.622;2023-02-02T00:18:03;12.70;;;8.57;;
23730;SDS011;12046;44.702;10.622;2023-02-02T00:20:30;12.52;;;8.05;;
23730;SDS011;12046;44.702;10.622;2023-02-02T00:22:56;14.13;;;8.02;;
23730;SDS011;12046;44.702;10.622;2023-02-02T00:25:22;12.02;;;7.18;;
23730;SDS011;12046;44.702;10.622;2023-02-02T00:27:48;12.73;;;7.70;;
23730;SDS011;12046;44.702;10.622;2023-02-02T00:30:14;12.98;;;7.85;;
23730;SDS011;12046;44.702;10.622;2023-02-02T00:32:43;15.50;;;9.20;;
23730;SDS011;12046;44.702;10.622;2023-02-02T00:35:12;19.92;;;8.52;;
23730;SDS011;12046;44.702;10.622;2023-02-02T00:37:39;13.27;;;7.85;;
23730;SDS011;12046;44.702;10.622;2023-02-02T00:40:06;12.50;;;8.57;;
23730;SDS011;12046;44.702;10.622;2023-02-02T00:42:36;13.18;;;8.27;;
23730;SDS011;12046;44.702;10.622;2023-02-02T00:45:03;13.48;;;8.82;;
23730;SDS011;12046;44.702;10.622;2023-02-02T00:47:45;14.88;;;9.15;;
23730;SDS011;12046;44.702;10.622;2023-02-02T00:50:16;17.50;;;7.95;;
23730;SDS011;12046;44.702;10.622;2023-02-02T00:52:44;14.38;;;9.27;;
23730;SDS011;12046;44.702;10.622;2023-02-02T00:55:11;17.45;;;11.38;;
23730;SDS011;12046;44.702;10.622;2023-02-02T00:57:38;19.08;;;10.23;;
23730;SDS011;12046;44.702;10.622;2023-02-02T01:00:06;17.20;;;10.48;;
23730;SDS011;12046;44.702;10.622;2023-02-02T01:02:33;16.60;;;9.82;;
23730;SDS011;12046;44.702;10.622;2023-02-02T01:05:00;18.13;;;10.45;;
23730;SDS011;12046;44.702;10.622;2023-02-02T01:07:26;18.38;;;9.65;;
23730;SDS011;12046;44.702;10.622;2023-02-02T01:09:52;19.92;;;9.77;;
23730;SDS011;12046;44.702;10.622;2023-02-02T01:12:21;15.73;;;9.05;;
23730;SDS011;12046;44.702;10.622;2023-02-02T01:14:47;15.82;;;9.38;;
23730;SDS011;12046;44.702;10.622;2023-02-02T01:17:13;14.63;;;9.77;;
23730;SDS011;12046;44.702;10.622;2023-02-02T01:19:39;15.50;;;8.75;;
23730;SDS011;12046;44.702;10.622;2023-02-02T01:22:06;16.35;;;9.63;;
23730;SDS011;12046;44.702;10.622;2023-02-02T01:24:32;17.13;;;8.73;;
23730;SDS011;12046;44.702;10.622;2023-02-02T01:26:58;16.13;;;9.30;;
23730;SDS011;12046;44.702;10.622;2023-02-02T01:29:27;17.48;;;9.63;;
23730;SDS011;12046;44.702;10.622;2023-02-02T01:31:52;11.98;;;6.72;;
23730;SDS011;12046;44.702;10.622;2023-02-02T01:34:21;9.40;;;6.68;;
23730;SDS011;12046;44.702;10.622;2023-02-02T01:36:47;13.23;;;7.43;;
23730;SDS011;12046;44.702;10.622;2023-02-02T01:39:13;12.82;;;6.85;;
23730;SDS011;12046;44.702;10.622;2023-02-02T01:41:39;12.30;;;6.82;;
23730;SDS011;12046;44.702;10.622;2023-02-02T01:44:56;14.60;;;7.57;;
23730;SDS011;12046;44.702;10.622;2023-02-02T01:47:10;11.50;;;7.35;;
23730;SDS011;12046;44.702;10.622;2023-02-02T01:49:36;11.52;;;7.95;;
23730;SDS011;12046;44.702;10.622;2023-02-02T01:52:04;13.70;;;9.27;;
23730;SDS011;12046;44.702;10.622;2023-02-02T01:54:32;9.48;;;7.25;;
23730;SDS011;12046;44.702;10.622;2023-02-02T01:57:04;10.65;;;7.05;;
23730;SDS011;12046;44.702;10.622;2023-02-02T01:59:38;12.18;;;7.38;;
23730;SDS011;12046;44.702;10.622;2023-02-02T02:02:06;11.90;;;7.80;;
23730;SDS011;12046;44.702;10.622;2023-02-02T02:04:33;9.88;;;6.68;;
23730;SDS011;12046;44.702;10.622;2023-02-02T02:06:59;12.65;;;6.45;;
23730;SDS011;12046;44.702;10.622;2023-02-02T02:09:26;9.50;;;6.35;;
23730;SDS011;12046;44.702;10.622;2023-02-02T02:11:53;10.85;;;5.93;;
23730;SDS011;12046;44.702;10.622;2023-02-02T02:14:19;6.55;;;5.18;;
23730;SDS011;12046;44.702;10.622;2023-02-02T02:17:09;8.27;;;5.32;;
23730;SDS011;12046;44.702;10.622;2023-02-02T02:26:21;9.80;;;6.05;;
23730;SDS011;12046;44.702;10.622;2023-02-02T02:34:37;11.18;;;5.70;;
23730;SDS011;12046;44.702;10.622;2023-02-02T02:40:11;10.45;;;5.68;;
23730;SDS011;12046;44.702;10.622;2023-02-02T02:42:58;7.65;;;5.22;;
23730;SDS011;12046;44.702;10.622;2023-02-02T02:45:27;12.00;;;5.75;;
23730;SDS011;12046;44.702;10.622;2023-02-02T02:47:53;9.32;;;5.20;;
23730;SDS011;12046;44.702;10.622;2023-02-02T02:50:20;8.50;;;5.18;;
23730;SDS011;12046;44.702;10.622;2023-02-02T02:52:48;9.13;;;5.40;;
23730;SDS011;12046;44.702;10.622;2023-02-02T02:55:19;9.40;;;5.20;;
23730;SDS011;12046;44.702;10.622;2023-02-02T03:03:38;9.63;;;5.38;;
23730;SDS011;12046;44.702;10.622;2023-02-02T03:09:05;7.97;;;5.28;;
23730;SDS011;12046;44.702;10.622;2023-02-02T03:11:36;6.97;;;5.18;;
23730;SDS011;12046;44.702;10.622;2023-02-02T03:14:02;10.93;;;6.07;;
23730;SDS011;12046;44.702;10.622;2023-02-02T03:16:28;8.25;;;5.72;;
23730;SDS011;12046;44.702;10.622;2023-02-02T03:18:54;9.52;;;5.85;;
23730;SDS011;12046;44.702;10.622;2023-02-02T03:21:21;9.25;;;5.45;;
23730;SDS011;12046;44.702;10.622;2023-02-02T03:23:47;8.57;;;5.60;;
23730;SDS011;12046;44.702;10.622;2023-02-02T03:26:13;7.60;;;5.57;;
23730;SDS011;12046;44.702;10.622;2023-02-02T03:28:39;9.75;;;5.22;;
23730;SDS011;12046;44.702;10.622;2023-02-02T03:31:05;10.77;;;5.72;;
23730;SDS011;12046;44.702;10.622;2023-02-02T03:33:31;9.32;;;5.60;;
23730;SDS011;12046;44.702;10.622;2023-02-02T03:36:01;8.52;;;5.40;;
23730;SDS011;12046;44.702;10.622;2023-02-02T03:38:26;8.30;;;6.22;;
23730;SDS011;12046;44.702;10.622;2023-02-02T03:40:52;7.45;;;5.07;;
23730;SDS011;12046;44.702;10.622;2023-02-02T03:43:18;10.73;;;5.70;;
23730;SDS011;12046;44.702;10.622;2023-02-02T03:45:54;8.63;;;6.05;;
23730;SDS011;12046;44.702;10.622;2023-02-02T03:48:24;7.15;;;5.63;;
23730;SDS011;12046;44.702;10.622;2023-02-02T03:50:50;11.52;;;7.30;;
23730;SDS011;12046;44.702;10.622;2023-02-02T03:53:16;9.75;;;5.95;;
23730;SDS011;12046;44.702;10.622;2023-02-02T03:55:41;11.57;;;6.57;;
23730;SDS011;12046;44.702;10.622;2023-02-02T03:58:07;10.52;;;6.65;;
23730;SDS011;12046;44.702;10.622;2023-02-02T04:00:33;11.93;;;6.47;;
23730;SDS011;12046;44.702;10.622;2023-02-02T04:02:59;13.90;;;7.82;;
23730;SDS011;12046;44.702;10.622;2023-02-02T04:05:25;11.73;;;6.95;;
23730;SDS011;12046;44.702;10.622;2023-02-02T04:07:52;12.18;;;7.05;;
23730;SDS011;12046;44.702;10.622;2023-02-02T04:10:18;13.07;;;7.25;;
23730;SDS011;12046;44.702;10.622;2023-02-02T04:12:44;11.98;;;7.10;;
23730;SDS011;12046;44.702;10.622;2023-02-02T04:15:10;11.55;;;6.57;;
23730;SDS011;12046;44.702;10.622;2023-02-02T04:17:36;11.88;;;6.43;;
23730;SDS011;12046;44.702;10.622;2023-02-02T04:20:03;11.73;;;6.25;;
23730;SDS011;12046;44.702;10.622;2023-02-02T04:22:29;9.15;;;5.75;;
23730;SDS011;12046;44.702;10.622;2023-02-02T04:24:55;10.18;;;6.05;;
23730;SDS011;12046;44.702;10.622;2023-02-02T04:27:21;9.38;;;5.63;;
23730;SDS011;12046;44.702;10.622;2023-02-02T04:29:48;9.13;;;6.32;;
23730;SDS011;12046;44.702;10.622;2023-02-02T04:32:14;10.43;;;6.70;;
23730;SDS011;12046;44.702;10.622;2023-02-02T04:34:40;7.60;;;5.22;;
23730;SDS011;12046;44.702;10.622;2023-02-02T04:37:06;8.32;;;5.38;;
23730;SDS011;12046;44.702;10.622;2023-02-02T04:39:31;10.80;;;6.32;;
23730;SDS011;12046;44.702;10.622;2023-02-02T04:41:57;9.45;;;6.30;;
23730;SDS011;12046;44.702;10.622;2023-02-02T04:44:23;12.57;;;6.45;;
23730;SDS011;12046;44.702;10.622;2023-02-02T04:46:49;14.00;;;6.70;;
23730;SDS011;12046;44.702;10.622;2023-02-02T04:49:14;15.32;;;8.02;;
23730;SDS011;12046;44.702;10.622;2023-02-02T04:51:40;10.98;;;6.53;;
23730;SDS011;12046;44.702;10.622;2023-02-02T04:54:06;11.57;;;6.80;;
23730;SDS011;12046;44.702;10.622;2023-02-02T04:56:32;12.10;;;7.28;;
23730;SDS011;12046;44.702;10.622;2023-02-02T04:58:58;9.80;;;6.20;;
23730;SDS011;12046;44.702;10.622;2023-02-02T05:01:24;11.23;;;6.65;;
23730;SDS011;12046;44.702;10.622;2023-02-02T05:03:50;9.38;;;6.82;;
23730;SDS011;12046;44.702;10.622;2023-02-02T05:06:16;10.25;;;5.63;;
23730;SDS011;12046;44.702;10.622;2023-02-02T05:08:43;9.63;;;6.35;;
23730;SDS011;12046;44.702;10.622;2023-02-02T05:11:11;11.25;;;6.15;;
23730;SDS011;12046;44.702;10.622;2023-02-02T05:13:44;12.00;;;7.53;;
23730;SDS011;12046;44.702;10.622;2023-02-02T05:16:11;12.77;;;7.40;;
23730;SDS011;12046;44.702;10.622;2023-02-02T05:18:36;12.68;;;7.60;;
23730;SDS011;12046;44.702;10.622;2023-02-02T05:21:02;19.77;;;7.05;;
23730;SDS011;12046;44.702;10.622;2023-02-02T05:23:29;11.88;;;7.22;;
23730;SDS011;12046;44.702;10.622;2023-02-02T05:25:55;12.98;;;6.80;;
23730;SDS011;12046;44.702;10.622;2023-02-02T05:28:21;11.55;;;6.53;;
23730;SDS011;12046;44.702;10.622;2023-02-02T05:30:48;10.68;;;6.20;;
23730;SDS011;12046;44.702;10.622;2023-02-02T05:33:14;10.75;;;6.70;;
23730;SDS011;12046;44.702;10.622;2023-02-02T05:35:43;12.32;;;6.80;;
23730;SDS011;12046;44.702;10.622;2023-02-02T05:38:10;10.63;;;6.63;;
23730;SDS011;12046;44.702;10.622;2023-02-02T05:40:35;11.20;;;7.05;;
23730;SDS011;12046;44.702;10.622;2023-02-02T05:43:01;9.48;;;6.25;;
23730;SDS011;12046;44.702;10.622;2023-02-02T05:45:27;10.82;;;7.00;;
23730;SDS011;12046;44.702;10.622;2023-02-02T05:47:53;11.95;;;7.15;;
23730;SDS011;12046;44.702;10.622;2023-02-02T05:50:19;13.20;;;7.43;;
23730;SDS011;12046;44.702;10.622;2023-02-02T05:52:45;12.38;;;7.95;;
23730;SDS011;12046;44.702;10.622;2023-02-02T05:55:12;11.18;;;7.32;;
23730;SDS011;12046;44.702;10.622;2023-02-02T05:57:38;14.23;;;7.85;;
23730;SDS011;12046;44.702;10.622;2023-02-02T06:00:04;10.30;;;7.22;;
23730;SDS011;12046;44.702;10.622;2023-02-02T06:02:30;11.55;;;7.45;;
23730;SDS011;12046;44.702;10.622;2023-02-02T06:04:56;13.02;;;7.63;;
23730;SDS011;12046;44.702;10.622;2023-02-02T06:07:22;13.52;;;7.32;;
23730;SDS011;12046;44.702;10.622;2023-02-02T06:09:47;11.70;;;7.47;;
23730;SDS011;12046;44.702;10.622;2023-02-02T06:12:13;10.52;;;6.93;;
23730;SDS011;12046;44.702;10.622;2023-02-02T06:14:39;14.00;;;7.55;;
23730;SDS011;12046;44.702;10.622;2023-02-02T06:17:04;14.73;;;7.95;;
23730;SDS011;12046;44.702;10.622;2023-02-02T06:19:31;10.13;;;6.75;;
23730;SDS011;12046;44.702;10.622;2023-02-02T06:21:56;12.43;;;7.88;;
23730;SDS011;12046;44.702;10.622;2023-02-02T06:24:22;14.52;;;7.53;;
23730;SDS011;12046;44.702;10.622;2023-02-02T06:26:48;10.60;;;6.90;;
23730;SDS011;12046;44.702;10.622;2023-02-02T06:29:14;12.27;;;8.10;;
23730;SDS011;12046;44.702;10.622;2023-02-02T06:31:40;15.75;;;9.60;;
23730;SDS011;12046;44.702;10.622;2023-02-02T06:34:06;14.68;;;9.43;;
23730;SDS011;12046;44.702;10.622;2023-02-02T06:36:34;14.90;;;8.70;;
23730;SDS011;12046;44.702;10.622;2023-02-02T06:39:00;17.48;;;9.52;;
23730;SDS011;12046;44.702;10.622;2023-02-02T06:41:28;12.10;;;7.75;;
23730;SDS011;12046;44.702;10.622;2023-02-02T06:43:55;13.45;;;7.82;;
23730;SDS011;12046;44.702;10.622;2023-02-02T06:46:21;13.35;;;7.82;;
23730;SDS011;12046;44.702;10.622;2023-02-02T06:48:47;12.32;;;8.10;;
23730;SDS011;12046;44.702;10.622;2023-02-02T06:51:12;11.25;;;7.38;;
23730;SDS011;12046;44.702;10.622;2023-02-02T06:53:38;11.57;;;7.88;;
23730;SDS011;12046;44.702;10.622;2023-02-02T06:56:05;12.60;;;7.80;;
23730;SDS011;12046;44.702;10.622;2023-02-02T06:58:33;14.02;;;7.63;;
23730;SDS011;12046;44.702;10.622;2023-02-02T07:01:02;18.08;;;8.55;;
23730;SDS011;12046;44.702;10.622;2023-02-02T07:03:33;14.82;;;8.98;;
23730;SDS011;12046;44.702;10.622;2023-02-02T07:08:55;15.00;;;8.35;;
23730;SDS011;12046;44.702;10.622;2023-02-02T07:11:21;11.55;;;7.32;;
23730;SDS011;12046;44.702;10.622;2023-02-02T07:13:48;15.88;;;9.90;;
23730;SDS011;12046;44.702;10.622;2023-02-02T07:16:14;14.57;;;9.15;;
23730;SDS011;12046;44.702;10.622;2023-02-02T07:18:42;17.67;;;8.73;;
23730;SDS011;12046;44.702;10.622;2023-02-02T07:21:09;17.92;;;8.40;;
23730;SDS011;12046;44.702;10.622;2023-02-02T07:23:44;13.57;;;8.40;;
23730;SDS011;12046;44.702;10.622;2023-02-02T07:26:10;14.85;;;8.65;;
23730;SDS011;12046;44.702;10.622;2023-02-02T07:28:38;18.33;;;9.38;;
23730;SDS011;12046;44.702;10.622;2023-02-02T07:31:14;12.90;;;8.35;;
23730;SDS011;12046;44.702;10.622;2023-02-02T07:33:44;12.02;;;8.30;;
23730;SDS011;12046;44.702;10.622;2023-02-02T07:36:11;17.92;;;9.43;;
23730;SDS011;12046;44.702;10.622;2023-02-02T07:38:40;18.25;;;8.77;;
23730;SDS011;12046;44.702;10.622;2023-02-02T07:41:06;14.25;;;8.60;;
23730;SDS011;12046;44.702;10.622;2023-02-02T07:43:32;15.93;;;9.70;;
23730;SDS011;12046;44.702;10.622;2023-02-02T07:46:01;14.35;;;8.20;;
23730;SDS011;12046;44.702;10.622;2023-02-02T07:48:30;12.18;;;7.93;;
23730;SDS011;12046;44.702;10.622;2023-02-02T07:51:03;11.50;;;7.90;;
23730;SDS011;12046;44.702;10.622;2023-02-02T07:56:08;14.82;;;8.70;;
23730;SDS011;12046;44.702;10.622;2023-02-02T07:58:34;14.93;;;8.30;;
23730;SDS011;12046;44.702;10.622;2023-02-02T08:01:01;16.20;;;8.20;;
23730;SDS011;12046;44.702;10.622;2023-02-02T08:03:28;19.02;;;9.48;;
23730;SDS011;12046;44.702;10.622;2023-02-02T08:05:55;12.55;;;8.10;;
23730;SDS011;12046;44.702;10.622;2023-02-02T08:08:21;12.95;;;8.20;;
23730;SDS011;12046;44.702;10.622;2023-02-02T08:10:50;10.55;;;6.82;;
23730;SDS011;12046;44.702;10.622;2023-02-02T08:13:17;11.80;;;7.88;;
23730;SDS011;12046;44.702;10.622;2023-02-02T08:15:43;13.00;;;7.43;;
23730;SDS011;12046;44.702;10.622;2023-02-02T08:18:09;14.93;;;7.32;;
23730;SDS011;12046;44.702;10.622;2023-02-02T08:20:34;12.57;;;7.80;;
23730;SDS011;12046;44.702;10.622;2023-02-02T08:23:00;12.20;;;7.55;;
23730;SDS011;12046;44.702;10.622;2023-02-02T08:25:26;14.75;;;8.20;;
23730;SDS011;12046;44.702;10.622;2023-02-02T08:27:52;12.50;;;6.80;;
23730;SDS011;12046;44.702;10.622;2023-02-02T08:30:19;12.38;;;7.55;;
23730;SDS011;12046;44.702;10.622;2023-02-02T08:32:45;13.98;;;6.75;;
23730;SDS011;12046;44.702;10.622;2023-02-02T08:35:11;13.52;;;6.93;;
23730;SDS011;12046;44.702;10.622;2023-02-02T08:37:37;10.73;;;6.72;;
23730;SDS011;12046;44.702;10.622;2023-02-02T08:40:03;11.65;;;6.32;;
23730;SDS011;12046;44.702;10.622;2023-02-02T08:42:29;10.50;;;6.18;;
23730;SDS011;12046;44.702;10.622;2023-02-02T08:44:55;12.15;;;6.22;;
23730;SDS011;12046;44.702;10.622;2023-02-02T08:47:20;11.43;;;6.35;;
23730;SDS011;12046;44.702;10.622;2023-02-02T08:49:46;9.23;;;6.20;;
23730;SDS011;12046;44.702;10.622;2023-02-02T08:52:12;12.70;;;6.38;;
23730;SDS011;12046;44.702;10.622;2023-02-02T08:54:38;8.35;;;5.80;;
23730;SDS011;12046;44.702;10.622;2023-02-02T08:57:04;12.82;;;5.47;;
23730;SDS011;12046;44.702;10.622;2023-02-02T08:59:29;10.40;;;7.20;;
23730;SDS011;12046;44.702;10.622;2023-02-02T09:01:55;8.95;;;6.22;;
23730;SDS011;12046;44.702;10.622;2023-02-02T09:04:21;10.45;;;6.68;;
23730;SDS011;12046;44.702;10.622;2023-02-02T09:06:47;9.32;;;6.00;;
23730;SDS011;12046;44.702;10.622;2023-02-02T09:09:13;10.13;;;5.63;;
23730;SDS011;12046;44.702;10.622;2023-02-02T09:11:40;8.88;;;5.93;;
23730;SDS011;12046;44.702;10.622;2023-02-02T09:14:07;9.55;;;6.18;;
23730;SDS011;12046;44.702;10.622;2023-02-02T09:16:34;9.10;;;6.55;;
23730;SDS011;12046;44.702;10.622;2023-02-02T09:19:00;9.23;;;5.80;;
23730;SDS011;12046;44.702;10.622;2023-02-02T09:21:26;13.93;;;6.43;;
23730;SDS011;12046;44.702;10.622;2023-02-02T09:23:53;9.95;;;5.68;;
23730;SDS011;12046;44.702;10.622;2023-02-02T09:26:23;9.60;;;5.63;;
23730;SDS011;12046;44.702;10.622;2023-02-02T09:28:52;6.75;;;5.30;;
23730;SDS011;12046;44.702;10.622;2023-02-02T09:31:29;9.27;;;5.47;;
23730;SDS011;12046;44.702;10.622;2023-02-02T09:34:01;5.85;;;4.45;;
23730;SDS011;12046;44.702;10.622;2023-02-02T09:38:57;8.73;;;5.53;;
23730;SDS011;12046;44.702;10.622;2023-02-02T09:52:33;7.72;;;5.25;;
23730;SDS011;12046;44.702;10.622;2023-02-02T09:55:05;5.93;;;5.32;;
23730;SDS011;12046;44.702;10.622;2023-02-02T09:57:47;11.65;;;6.30;;
23730;SDS011;12046;44.702;10.622;2023-02-02T10:00:26;21.05;;;6.72;;
23730;SDS011;12046;44.702;10.622;2023-02-02T10:08:43;10.13;;;9.15;;
23730;SDS011;12046;44.702;10.622;2023-02-02T10:11:28;11.65;;;10.38;;
23730;SDS011;12046;44.702;10.622;2023-02-02T10:14:14;15.00;;;13.80;;
23730;SDS011;12046;44.702;10.622;2023-02-02T10:16:46;26.67;;;24.88;;
23730;SDS011;12046;44.702;10.622;2023-02-02T10:19:16;24.17;;;21.92;;
23730;SDS011;12046;44.702;10.622;2023-02-02T10:21:48;17.92;;;16.50;;
23730;SDS011;12046;44.702;10.622;2023-02-02T10:24:23;11.80;;;10.77;;
23730;SDS011;12046;44.702;10.622;2023-02-02T10:27:05;8.15;;;7.45;;
23730;SDS011;12046;44.702;10.622;2023-02-02T10:37:50;8.88;;;8.25;;
23730;SDS011;12046;44.702;10.622;2023-02-02T10:45:49;6.30;;;5.72;;
23730;SDS011;12046;44.702;10.622;2023-02-02T10:48:17;9.07;;;5.88;;
23730;SDS011;12046;44.702;10.622;2023-02-02T10:50:47;5.82;;;5.43;;
23730;SDS011;12046;44.702;10.622;2023-02-02T10:53:16;8.20;;;6.80;;
23730;SDS011;12046;44.702;10.622;2023-02-02T10:55:43;12.05;;;11.18;;
23730;SDS011;12046;44.702;10.622;2023-02-02T11:01:03;13.50;;;12.70;;
23730;SDS011;12046;44.702;10.622;2023-02-02T11:03:34;16.17;;;14.95;;
23730;SDS011;12046;44.702;10.622;2023-02-02T11:06:02;12.40;;;11.38;;
23730;SDS011;12046;44.702;10.622;2023-02-02T11:08:48;7.20;;;6.70;;
23730;SDS011;12046;44.702;10.622;2023-02-02T11:11:23;7.10;;;6.70;;
23730;SDS011;12046;44.702;10.622;2023-02-02T11:16:35;4.78;;;4.47;;
23730;SDS011;12046;44.702;10.622;2023-02-02T11:21:47;4.25;;;3.42;;
23730;SDS011;12046;44.702;10.622;2023-02-02T11:24:20;3.63;;;3.45;;
23730;SDS011;12046;44.702;10.622;2023-02-02T11:29:26;4.30;;;3.97;;
23730;SDS011;12046;44.702;10.622;2023-02-02T11:31:58;4.20;;;3.83;;
23730;SDS011;12046;44.702;10.622;2023-02-02T11:42:53;4.35;;;4.15;;
23730;SDS011;12046;44.702;10.622;2023-02-02T11:45:40;4.45;;;4.15;;
23730;SDS011;12046;44.702;10.622;2023-02-02T11:48:22;3.92;;;3.58;;
23730;SDS011;12046;44.702;10.622;2023-02-02T11:50:52;3.78;;;3.58;;
23730;SDS011;12046;44.702;10.622;2023-02-02T11:53:24;3.58;;;3.38;;
23730;SDS011;12046;44.702;10.622;2023-02-02T11:55:56;3.58;;;3.05;;
23730;SDS011;12046;44.702;10.622;2023-02-02T11:58:43;2.80;;;2.60;;
23730;SDS011;12046;44.702;10.622;2023-02-02T12:01:22;2.60;;;2.40;;
23730;SDS011;12046;44.702;10.622;2023-02-02T12:03:49;2.72;;;2.60;;
23730;SDS011;12046;44.702;10.622;2023-02-02T12:06:16;3.08;;;2.88;;
23730;SDS011;12046;44.702;10.622;2023-02-02T12:08:43;3.08;;;2.42;;
23730;SDS011;12046;44.702;10.622;2023-02-02T12:11:09;2.97;;;2.47;;
23730;SDS011;12046;44.702;10.622;2023-02-02T12:14:51;2.38;;;2.28;;
23730;SDS011;12046;44.702;10.622;2023-02-02T12:17:14;2.88;;;2.30;;
23730;SDS011;12046;44.702;10.622;2023-02-02T12:25:36;2.35;;;2.15;;
23730;SDS011;12046;44.702;10.622;2023-02-02T12:33:38;2.58;;;1.92;;
23730;SDS011;12046;44.702;10.622;2023-02-02T12:36:22;1.75;;;1.65;;
23730;SDS011;12046;44.702;10.622;2023-02-02T12:39:15;2.28;;;1.55;;
23730;SDS011;12046;44.702;10.622;2023-02-02T12:51:02;1.52;;;1.30;;
23730;SDS011;12046;44.702;10.622;2023-02-02T12:59:18;1.33;;;1.20;;
23730;SDS011;12046;44.702;10.622;2023-02-02T13:02:29;2.13;;;1.70;;
23730;SDS011;12046;44.702;10.622;2023-02-02T13:05:15;1.30;;;1.20;;
23730;SDS011;12046;44.702;10.622;2023-02-02T13:07:51;1.35;;;1.25;;
23730;SDS011;12046;44.702;10.622;2023-02-02T13:10:33;3.08;;;1.77;;
23730;SDS011;12046;44.702;10.622;2023-02-02T13:13:12;3.08;;;1.30;;
23730;SDS011;12046;44.702;10.622;2023-02-02T13:15:40;2.83;;;1.30;;
23730;SDS011;12046;44.702;10.622;2023-02-02T13:18:17;2.00;;;1.40;;
23730;SDS011;12046;44.702;10.622;2023-02-02T13:20:51;4.10;;;1.10;;
23730;SDS011;12046;44.702;10.622;2023-02-02T13:23:38;1.35;;;0.70;;
23730;SDS011;12046;44.702;10.622;2023-02-02T13:26:25;1.73;;;0.70;;
23730;SDS011;12046;44.702;10.622;2023-02-02T13:42:48;2.20;;;0.20;;
23730;SDS011;12046;44.702;10.622;2023-02-02T13:45:41;2.78;;;0.50;;
23730;SDS011;12046;44.702;10.622;2023-02-02T14:02:20;0.75;;;0.65;;
23730;SDS011;12046;44.702;10.622;2023-02-02T14:05:05;2.20;;;0.20;;
23730;SDS011;12046;44.702;10.622;2023-02-02T14:07:37;0.47;;;0.28;;
23730;SDS011;12046;44.702;10.622;2023-02-02T14:10:21;0.28;;;0.20;;
23730;SDS011;12046;44.702;10.622;2023-02-02T14:12:49;1.33;;;0.40;;
23730;SDS011;12046;44.702;10.622;2023-02-02T14:15:16;1.48;;;0.40;;
23730;SDS011;12046;44.702;10.622;2023-02-02T14:26:09;1.17;;;0.75;;
23730;SDS011;12046;44.702;10.622;2023-02-02T14:28:42;1.00;;;0.73;;
23730;SDS011;12046;44.702;10.622;2023-02-02T14:31:25;0.95;;;0.40;;
23730;SDS011;12046;44.702;10.622;2023-02-02T14:40:09;7.07;;;0.80;;
23730;SDS011;12046;44.702;10.622;2023-02-02T14:48:14;0.63;;;0.57;;
23730;SDS011;12046;44.702;10.622;2023-02-02T14:50:52;0.50;;;0.50;;
23730;SDS011;12046;44.702;10.622;2023-02-02T14:55:56;2.05;;;0.70;;
23730;SDS011;12046;44.702;10.622;2023-02-02T14:58:38;3.50;;;0.85;;
23730;SDS011;12046;44.702;10.622;2023-02-02T15:01:32;1.20;;;0.47;;
23730;SDS011;12046;44.702;10.622;2023-02-02T15:33:36;0.98;;;0.90;;
23730;SDS011;12046;44.702;10.622;2023-02-02T15:36:09;2.00;;;0.77;;
23730;SDS011;12046;44.702;10.622;2023-02-02T15:38:44;1.08;;;0.77;;
23730;SDS011;12046;44.702;10.622;2023-02-02T15:41:17;3.20;;;0.70;;
23730;SDS011;12046;44.702;10.622;2023-02-02T15:43:48;1.23;;;0.82;;
23730;SDS011;12046;44.702;10.622;2023-02-02T15:46:24;0.95;;;0.70;;
23730;SDS011;12046;44.702;10.622;2023-02-02T15:51:46;1.15;;;0.90;;
23730;SDS011;12046;44.702;10.622;2023-02-02T15:56:50;1.50;;;0.80;;
23730;SDS011;12046;44.702;10.622;2023-02-02T15:59:21;1.20;;;1.10;;
23730;SDS011;12046;44.702;10.622;2023-02-02T16:01:53;2.00;;;0.90;;
23730;SDS011;12046;44.702;10.622;2023-02-02T16:04:38;0.90;;;0.75;;
23730;SDS011;12046;44.702;10.622;2023-02-02T16:07:27;1.05;;;0.70;;
23730;SDS011;12046;44.702;10.622;2023-02-02T16:10:01;2.15;;;1.00;;
23730;SDS011;12046;44.702;10.622;2023-02-02T16:12:30;2.67;;;0.70;;
23730;SDS011;12046;44.702;10.622;2023-02-02T16:14:58;2.45;;;0.80;;
23730;SDS011;12046;44.702;10.622;2023-02-02T16:17:31;3.13;;;0.82;;
23730;SDS011;12046;44.702;10.622;2023-02-02T16:20:03;1.08;;;0.70;;
23730;SDS011;12046;44.702;10.622;2023-02-02T16:22:34;5.15;;;1.17;;
23730;SDS011;12046;44.702;10.622;2023-02-02T16:25:02;2.03;;;0.93;;
23730;SDS011;12046;44.702;10.622;2023-02-02T16:27:33;4.47;;;1.05;;
23730;SDS011;12046;44.702;10.622;2023-02-02T16:30:03;1.27;;;0.75;;
23730;SDS011;12046;44.702;10.622;2023-02-02T16:32:34;1.63;;;0.95;;
23730;SDS011;12046;44.702;10.622;2023-02-02T16:35:04;2.85;;;1.20;;
23730;SDS011;12046;44.702;10.622;2023-02-02T16:37:50;4.47;;;1.25;;
23730;SDS011;12046;44.702;10.622;2023-02-02T16:40:17;2.53;;;1.25;;
23730;SDS011;12046;44.702;10.622;2023-02-02T16:45:48;2.25;;;1.33;;
23730;SDS011;12046;44.702;10.622;2023-02-02T16:53:34;1.85;;;1.50;;
23730;SDS011;12046;44.702;10.622;2023-02-02T16:56:01;1.85;;;1.30;;
23730;SDS011;12046;44.702;10.622;2023-02-02T16:58:29;3.38;;;1.35;;
23730;SDS011;12046;44.702;10.622;2023-02-02T17:03:39;3.80;;;1.48;;
23730;SDS011;12046;44.702;10.622;2023-02-02T17:06:11;2.40;;;1.20;;
23730;SDS011;12046;44.702;10.622;2023-02-02T17:08:38;3.90;;;1.15;;
23730;SDS011;12046;44.702;10.622;2023-02-02T17:11:24;4.55;;;1.50;;
23730;SDS011;12046;44.702;10.622;2023-02-02T17:13:52;2.25;;;1.30;;
23730;SDS011;12046;44.702;10.622;2023-02-02T17:16:20;2.17;;;1.63;;
23730;SDS011;12046;44.702;10.622;2023-02-02T17:18:47;5.28;;;1.85;;
23730;SDS011;12046;44.702;10.622;2023-02-02T17:21:17;2.60;;;1.42;;
23730;SDS011;12046;44.702;10.622;2023-02-02T17:23:47;2.45;;;1.90;;
23730;SDS011;12046;44.702;10.622;2023-02-02T17:26:20;2.40;;;1.60;;
23730;SDS011;12046;44.702;10.622;2023-02-02T17:28:46;2.50;;;1.60;;
23730;SDS011;12046;44.702;10.622;2023-02-02T17:31:12;4.85;;;1.92;;
23730;SDS011;12046;44.702;10.622;2023-02-02T17:33:39;2.85;;;1.88;;
23730;SDS011;12046;44.702;10.622;2023-02-02T17:36:06;3.17;;;1.80;;
23730;SDS011;12046;44.702;10.622;2023-02-02T17:38:32;3.83;;;1.98;;
23730;SDS011;12046;44.702;10.622;2023-02-02T17:40:59;2.92;;;1.80;;
23730;SDS011;12046;44.702;10.622;2023-02-02T17:43:26;4.45;;;2.22;;
23730;SDS011;12046;44.702;10.622;2023-02-02T17:45:52;4.13;;;2.00;;
23730;SDS011;12046;44.702;10.622;2023-02-02T17:48:18;3.33;;;1.80;;
23730;SDS011;12046;44.702;10.622;2023-02-02T17:50:45;3.28;;;1.33;;
23730;SDS011;12046;44.702;10.622;2023-02-02T17:53:12;4.32;;;1.70;;
23730;SDS011;12046;44.702;10.622;2023-02-02T17:55:40;5.53;;;1.75;;
23730;SDS011;12046;44.702;10.622;2023-02-02T17:58:07;4.68;;;1.92;;
23730;SDS011;12046;44.702;10.622;2023-02-02T18:00:34;3.38;;;2.03;;
23730;SDS011;12046;44.702;10.622;2023-02-02T18:03:09;4.55;;;2.53;;
23730;SDS011;12046;44.702;10.622;2023-02-02T18:05:38;7.40;;;3.35;;